createdAt,value
2019-01-27T00:01:14.008Z,7.00
2019-01-27T00:03:42.705Z,7.00
2019-01-27T00:06:10.479Z,7.00
2019-01-27T00:08:37.957Z,7.00
2019-01-27T00:11:06.897Z,6.90
2019-01-27T00:13:36.004Z,6.90
2019-01-27T00:16:03.880Z,6.90
2019-01-27T00:18:31.432Z,7.00
2019-01-27T00:21:00.120Z,7.00
2019-01-27T00:23:27.277Z,7.00
2019-01-27T00:25:56.252Z,6.90
2019-01-27T00:28:24.645Z,7.00
2019-01-27T00:30:53.168Z,7.00
2019-01-27T00:33:21.442Z,7.00
2019-01-27T00:35:49.777Z,7.10
2019-01-27T00:38:17.949Z,7.00
2019-01-27T00:40:46.238Z,7.10
2019-01-27T00:43:14.292Z,7.10
2019-01-27T00:45:42.600Z,7.10
2019-01-27T00:48:10.752Z,7.10
2019-01-27T00:50:39.137Z,7.10
2019-01-27T00:53:07.421Z,7.10
2019-01-27T00:55:35.704Z,7.20
2019-01-27T00:58:05.184Z,7.10
2019-01-27T01:00:33.412Z,7.10
2019-01-27T01:03:01.981Z,7.20
2019-01-27T01:05:30.175Z,7.20
2019-01-27T01:07:58.626Z,7.20
2019-01-27T01:10:26.916Z,7.30
2019-01-27T01:12:54.844Z,7.30
2019-01-27T01:15:23.226Z,7.30
2019-01-27T01:17:51.909Z,7.30
2019-01-27T01:20:20.565Z,7.30
2019-01-27T01:22:49.649Z,7.30
2019-01-27T01:25:22.134Z,7.30
2019-01-27T01:27:51.367Z,7.30
2019-01-27T01:30:22.725Z,7.20
2019-01-27T01:32:50.285Z,7.30
2019-01-27T01:35:18.781Z,7.30
2019-01-27T01:37:47.476Z,7.30
2019-01-27T01:40:16.670Z,7.30
2019-01-27T01:42:45.277Z,7.30
2019-01-27T01:45:16.759Z,7.40
2019-01-27T01:47:45.524Z,7.40
2019-01-27T01:50:13.953Z,7.30
2019-01-27T01:52:42.951Z,7.20
2019-01-27T01:55:12.175Z,7.30
2019-01-27T01:57:40.527Z,7.70
2019-01-27T02:00:11.900Z,7.20
2019-01-27T02:02:40.049Z,7.00
2019-01-27T02:05:09.018Z,7.20
2019-01-27T02:07:38.754Z,7.20
2019-01-27T02:10:07.269Z,7.20
2019-01-27T02:12:34.744Z,7.20
2019-01-27T02:15:04.619Z,7.20
2019-01-27T02:17:31.694Z,7.20
2019-01-27T02:20:00.747Z,7.10
2019-01-27T02:22:34.043Z,7.20
2019-01-27T02:25:13.303Z,7.20
2019-01-27T02:27:46.127Z,7.20
2019-01-27T02:30:16.363Z,7.40
2019-01-27T02:32:43.298Z,6.90
2019-01-27T02:35:15.877Z,7.20
2019-01-27T02:37:43.913Z,7.20
2019-01-27T02:40:11.255Z,7.20
2019-01-27T02:42:38.953Z,7.20
2019-01-27T02:45:06.523Z,7.20
2019-01-27T02:47:33.422Z,7.20
2019-01-27T02:50:00.329Z,7.20
2019-01-27T02:52:27.271Z,7.20
2019-01-27T02:54:54.216Z,7.20
2019-01-27T02:57:21.202Z,7.20
2019-01-27T02:59:48.474Z,7.30
2019-01-27T03:02:15.663Z,7.30
2019-01-27T03:04:42.638Z,7.30
2019-01-27T03:07:38.937Z,7.30
2019-01-27T03:10:10.988Z,7.30
2019-01-27T03:12:38.241Z,7.30
2019-01-27T03:15:06.222Z,7.30
2019-01-27T03:17:33.306Z,7.30
2019-01-27T03:20:00.210Z,7.40
2019-01-27T03:22:27.120Z,7.30
2019-01-27T03:24:54.167Z,7.30
2019-01-27T03:27:21.267Z,7.30
2019-01-27T03:29:48.591Z,7.30
2019-01-27T03:32:16.139Z,7.30
2019-01-27T03:34:43.631Z,7.40
2019-01-27T03:37:10.624Z,7.30
2019-01-27T03:39:37.533Z,7.30
2019-01-27T03:42:05.121Z,7.30
2019-01-27T03:44:32.313Z,7.40
2019-01-27T03:46:59.330Z,7.40
2019-01-27T03:49:26.325Z,7.30
2019-01-27T03:51:53.876Z,7.30
2019-01-27T03:54:21.078Z,7.30
2019-01-27T03:56:48.579Z,7.30
2019-01-27T03:59:17.766Z,7.30
2019-01-27T04:01:45.772Z,7.30
2019-01-27T04:04:13.794Z,7.30
2019-01-27T04:06:41.839Z,7.30
2019-01-27T04:09:11.606Z,7.30
2019-01-27T04:11:39.614Z,7.30
2019-01-27T04:14:07.657Z,7.40
2019-01-27T04:16:35.750Z,7.40
2019-01-27T04:19:04.045Z,7.40
2019-01-27T04:21:31.202Z,7.70
2019-01-27T04:23:59.278Z,7.30
2019-01-27T04:26:27.434Z,7.30
2019-01-27T04:28:55.745Z,7.20
2019-01-27T04:31:24.033Z,7.20
2019-01-27T04:33:50.935Z,7.20
2019-01-27T04:36:18.935Z,7.20
2019-01-27T04:38:46.826Z,7.20
2019-01-27T04:41:14.826Z,7.20
2019-01-27T04:43:42.766Z,7.30
2019-01-27T04:46:11.008Z,7.30
2019-01-27T04:48:39.210Z,7.40
2019-01-27T04:51:07.209Z,7.30
2019-01-27T04:53:35.937Z,7.30
2019-01-27T04:56:05.951Z,7.30
2019-01-27T04:58:34.071Z,7.40
2019-01-27T05:01:02.198Z,7.40
2019-01-27T05:03:50.838Z,7.40
2019-01-27T05:06:17.759Z,7.50
2019-01-27T05:08:44.704Z,7.40
2019-01-27T05:11:11.886Z,7.30
2019-01-27T05:13:38.833Z,7.40
2019-01-27T05:16:05.826Z,7.40
2019-01-27T05:18:32.811Z,7.30
2019-01-27T05:21:00.698Z,7.30
2019-01-27T05:23:28.687Z,7.30
2019-01-27T05:25:56.765Z,7.20
2019-01-27T05:28:25.060Z,7.30
2019-01-27T05:30:51.949Z,7.20
2019-01-27T05:33:19.836Z,7.20
2019-01-27T05:35:47.747Z,7.20
2019-01-27T05:38:15.953Z,7.20
2019-01-27T05:40:43.926Z,7.20
2019-01-27T05:43:12.503Z,7.20
2019-01-27T05:45:40.843Z,7.20
2019-01-27T05:48:09.178Z,7.20
2019-01-27T05:50:37.739Z,7.30
2019-01-27T05:53:06.525Z,7.20
2019-01-27T05:55:35.001Z,7.30
2019-01-27T05:58:05.422Z,7.20
2019-01-27T06:00:39.361Z,7.20
2019-01-27T06:03:07.708Z,7.20
2019-01-27T06:05:36.334Z,7.20
2019-01-27T06:08:04.844Z,7.20
2019-01-27T06:10:33.157Z,7.20
2019-01-27T06:13:02.259Z,7.20
2019-01-27T06:15:30.535Z,7.20
2019-01-27T06:17:57.990Z,7.20
2019-01-27T06:20:26.371Z,7.20
2019-01-27T06:22:54.850Z,7.20
2019-01-27T06:25:26.044Z,7.20
2019-01-27T06:27:52.741Z,7.30
2019-01-27T06:30:22.607Z,7.40
2019-01-27T06:33:16.529Z,7.40
2019-01-27T06:35:44.299Z,7.40
2019-01-27T06:38:11.510Z,7.30
2019-01-27T06:40:38.609Z,7.30
2019-01-27T06:43:06.974Z,7.30
2019-01-27T06:45:34.198Z,7.30
2019-01-27T06:48:02.087Z,7.20
2019-01-27T06:50:29.761Z,7.20
2019-01-27T06:52:57.469Z,7.30
2019-01-27T06:55:32.370Z,7.30
2019-01-27T06:57:59.450Z,7.30
2019-01-27T07:00:45.504Z,7.10
2019-01-27T07:03:24.721Z,7.40
2019-01-27T07:06:09.895Z,7.30
2019-01-27T07:09:01.569Z,7.40
2019-01-27T07:11:50.750Z,7.30
2019-01-27T07:14:25.989Z,7.30
2019-01-27T07:17:11.593Z,7.20
2019-01-27T07:19:55.658Z,7.20
2019-01-27T07:23:01.394Z,7.20
2019-01-27T07:25:44.163Z,7.20
2019-01-27T07:28:21.753Z,7.10
2019-01-27T07:31:08.793Z,7.20
2019-01-27T07:34:00.050Z,7.20
2019-01-27T07:36:45.553Z,7.30
2019-01-27T07:39:24.354Z,7.30
2019-01-27T07:42:09.602Z,7.30
2019-01-27T07:45:00.442Z,7.30
2019-01-27T07:47:47.354Z,7.30
2019-01-27T07:50:38.054Z,7.30
2019-01-27T07:53:23.613Z,7.30
2019-01-27T07:56:01.841Z,7.30
2019-01-27T07:58:35.446Z,7.30
2019-01-27T08:01:13.047Z,7.40
2019-01-27T08:03:55.965Z,7.40
2019-01-27T08:06:32.293Z,6.80
2019-01-27T08:09:25.657Z,7.50
2019-01-27T08:12:16.186Z,7.40
2019-01-27T08:14:59.220Z,7.40
2019-01-27T08:17:44.285Z,7.30
2019-01-27T08:20:20.034Z,7.40
2019-01-27T08:22:56.569Z,7.40
2019-01-27T08:25:33.713Z,7.30
2019-01-27T08:28:20.254Z,7.30
2019-01-27T08:31:06.905Z,7.30
2019-01-27T08:33:57.794Z,7.40
2019-01-27T08:36:46.258Z,7.40
2019-01-27T08:39:46.993Z,7.40
2019-01-27T08:42:32.274Z,7.50
2019-01-27T08:45:25.842Z,7.50
2019-01-27T08:47:54.936Z,7.50
2019-01-27T08:50:22.867Z,7.50
2019-01-27T08:52:51.009Z,7.60
2019-01-27T08:55:19.282Z,7.70
2019-01-27T08:57:47.157Z,7.70
2019-01-27T09:00:18.130Z,7.80
2019-01-27T09:03:05.687Z,7.80
2019-01-27T09:05:56.300Z,7.80
2019-01-27T09:08:42.251Z,7.80
2019-01-27T09:11:23.316Z,7.90
2019-01-27T09:14:19.858Z,7.90
2019-01-27T09:17:10.571Z,7.90
2019-01-27T09:20:04.049Z,8.00
2019-01-27T09:22:51.934Z,8.00
2019-01-27T09:25:57.514Z,8.00
2019-01-27T09:29:00.392Z,8.10
2019-01-27T09:31:44.400Z,8.10
2019-01-27T09:34:22.118Z,8.10
2019-01-27T09:37:05.460Z,8.10
2019-01-27T09:40:01.333Z,8.10
2019-01-27T09:42:41.705Z,8.10
2019-01-27T09:45:31.233Z,8.00
2019-01-27T09:48:16.794Z,8.20
2019-01-27T09:50:57.725Z,8.20
2019-01-27T09:53:47.518Z,8.60
2019-01-27T09:56:23.677Z,8.30
2019-01-27T09:59:09.528Z,8.30
2019-01-27T10:01:56.197Z,8.20
2019-01-27T10:04:41.525Z,8.20
2019-01-27T10:07:29.914Z,8.30
2019-01-27T10:10:26.783Z,8.30
2019-01-27T10:13:17.772Z,8.30
2019-01-27T10:16:04.342Z,8.30
2019-01-27T10:18:50.693Z,8.40
2019-01-27T10:21:40.602Z,8.40
2019-01-27T10:28:15.745Z,8.50
2019-01-27T10:30:49.377Z,8.50
2019-01-27T10:33:28.367Z,8.50
2019-01-27T10:36:06.392Z,8.40
2019-01-27T10:38:49.494Z,8.40
2019-01-27T10:41:24.010Z,8.40
2019-01-27T10:44:10.710Z,8.70
2019-01-27T10:46:55.726Z,8.30
2019-01-27T10:49:48.890Z,8.40
2019-01-27T10:52:42.854Z,8.30
2019-01-27T10:55:14.999Z,8.30
2019-01-27T10:58:02.729Z,8.30
2019-01-27T11:00:51.270Z,8.50
2019-01-27T11:03:43.761Z,8.40
2019-01-27T11:06:32.781Z,8.50
2019-01-27T11:09:25.800Z,8.50
2019-01-27T11:12:17.650Z,8.50
2019-01-27T11:15:14.283Z,8.50
2019-01-27T11:17:50.553Z,8.60
2019-01-27T11:20:45.391Z,8.50
2019-01-27T11:23:46.113Z,8.50
2019-01-27T11:26:24.006Z,8.50
2019-01-27T11:29:29.481Z,8.50
2019-01-27T11:32:15.450Z,8.50
2019-01-27T11:34:58.287Z,8.40
2019-01-27T11:38:00.431Z,8.30
2019-01-27T11:40:53.841Z,8.40
2019-01-27T11:43:53.852Z,8.20
2019-01-27T11:46:29.819Z,8.20
2019-01-27T11:49:06.758Z,8.30
2019-01-27T11:51:53.833Z,8.20
2019-01-27T11:54:21.517Z,8.20
2019-01-27T11:56:49.131Z,8.30
2019-01-27T11:59:16.133Z,8.30
2019-01-27T12:01:43.590Z,8.30
2019-01-27T12:04:11.258Z,8.30
2019-01-27T12:06:38.763Z,8.40
2019-01-27T12:09:07.599Z,8.80
2019-01-27T12:11:34.978Z,8.50
2019-01-27T12:14:01.865Z,8.40
2019-01-27T12:16:30.380Z,8.50
2019-01-27T12:19:02.798Z,8.50
2019-01-27T12:21:30.957Z,8.50
2019-01-27T12:23:58.008Z,8.50
2019-01-27T12:26:26.439Z,8.50
2019-01-27T12:28:53.367Z,8.40
2019-01-27T12:31:21.964Z,8.40
2019-01-27T12:33:48.914Z,8.40
2019-01-27T12:36:15.789Z,8.40
2019-01-27T12:38:43.534Z,8.40
2019-01-27T12:41:10.546Z,8.40
2019-01-27T12:43:37.454Z,8.20
2019-01-27T12:46:05.266Z,8.10
2019-01-27T12:48:32.519Z,7.90
2019-01-27T12:50:59.515Z,7.80
2019-01-27T12:53:26.652Z,7.70
2019-01-27T12:55:53.673Z,7.80
2019-01-27T12:58:20.695Z,7.70
2019-01-27T13:01:00.358Z,7.70
2019-01-27T13:03:27.369Z,7.80
2019-01-27T13:05:54.275Z,7.80
2019-01-27T13:08:21.278Z,7.80
2019-01-27T13:10:48.188Z,7.80
2019-01-27T13:13:15.106Z,7.70
2019-01-27T13:15:42.055Z,7.70
2019-01-27T13:18:10.489Z,7.80
2019-01-27T13:20:37.777Z,7.90
2019-01-27T13:23:04.906Z,8.10
2019-01-27T13:25:32.132Z,7.90
2019-01-27T13:28:00.057Z,7.80
2019-01-27T13:30:27.285Z,7.70
2019-01-27T13:32:54.724Z,8.20
2019-01-27T13:35:22.530Z,7.80
2019-01-27T13:37:50.074Z,7.70
2019-01-27T13:40:18.897Z,7.70
2019-01-27T13:42:45.983Z,7.60
2019-01-27T13:45:18.270Z,7.60
2019-01-27T13:47:45.465Z,7.50
2019-01-27T13:50:12.866Z,7.60
2019-01-27T13:52:40.075Z,7.50
2019-01-27T13:55:10.380Z,7.60
2019-01-27T13:57:38.662Z,7.60
2019-01-27T14:00:08.942Z,7.60
2019-01-27T14:02:36.830Z,7.60
2019-01-27T14:05:06.026Z,7.50
2019-01-27T14:07:34.142Z,7.50
2019-01-27T14:10:03.882Z,7.50
2019-01-27T14:12:30.798Z,7.50
2019-01-27T14:14:57.814Z,7.50
2019-01-27T14:17:26.170Z,7.60
2019-01-27T14:19:53.071Z,7.60
2019-01-27T14:22:25.446Z,7.60
2019-01-27T14:24:52.540Z,7.60
2019-01-27T14:27:20.598Z,7.60
2019-01-27T14:29:48.634Z,7.60
2019-01-27T14:32:23.573Z,7.60
2019-01-27T14:34:50.445Z,7.60
2019-01-27T14:37:17.356Z,7.60
2019-01-27T14:39:47.165Z,7.60
2019-01-27T14:42:14.309Z,7.70
2019-01-27T14:44:41.314Z,7.70
2019-01-27T14:47:10.801Z,7.70
2019-01-27T14:49:37.798Z,7.70
2019-01-27T14:52:04.934Z,7.70
2019-01-27T14:54:32.802Z,7.80
2019-01-27T14:57:03.850Z,7.70
2019-01-27T14:59:31.889Z,7.80
2019-01-27T15:01:59.169Z,7.80
2019-01-27T15:04:26.679Z,7.70
2019-01-27T15:06:54.402Z,7.60
2019-01-27T15:09:21.742Z,7.80
2019-01-27T15:12:11.168Z,7.70
2019-01-27T15:14:41.345Z,7.60
2019-01-27T15:17:10.446Z,7.50
2019-01-27T15:19:37.997Z,7.50
2019-01-27T15:22:05.819Z,7.50
2019-01-27T15:24:33.633Z,7.40
2019-01-27T15:27:01.141Z,7.30
2019-01-27T15:29:36.114Z,7.40
2019-01-27T15:32:03.789Z,7.50
2019-01-27T15:34:31.346Z,7.60
2019-01-27T15:36:58.875Z,7.60
2019-01-27T15:39:26.064Z,7.60
2019-01-27T15:41:57.141Z,7.50
2019-01-27T15:44:24.554Z,7.50
2019-01-27T15:46:51.906Z,7.40
2019-01-27T15:49:18.796Z,7.40
2019-01-27T15:51:46.522Z,7.20
2019-01-27T15:54:13.946Z,7.10
2019-01-27T15:56:45.380Z,7.00
2019-01-27T15:59:12.881Z,6.80
2019-01-27T16:01:40.356Z,6.70
2019-01-27T16:04:07.623Z,6.70
2019-01-27T16:06:34.962Z,6.70
2019-01-27T16:09:07.982Z,6.70
2019-01-27T16:11:34.904Z,6.80
2019-01-27T16:14:03.034Z,6.70
2019-01-27T16:16:29.932Z,6.70
2019-01-27T16:18:58.996Z,6.60
2019-01-27T16:21:25.678Z,6.60
2019-01-27T16:23:59.333Z,6.60
2019-01-27T16:26:26.538Z,6.50
2019-01-27T16:28:55.136Z,6.50
2019-01-27T16:31:41.001Z,6.30
2019-01-27T16:34:26.890Z,6.30
2019-01-27T16:36:55.884Z,6.60
2019-01-27T16:39:26.002Z,6.30
2019-01-27T16:41:54.030Z,6.20
2019-01-27T16:44:23.035Z,6.10
2019-01-27T16:46:51.214Z,6.10
2019-01-27T16:49:24.706Z,6.10
2019-01-27T16:51:53.305Z,6.10
2019-01-27T16:54:21.774Z,6.10
2019-01-27T16:56:50.250Z,6.10
2019-01-27T16:59:18.208Z,6.10
2019-01-27T17:01:51.206Z,6.00
2019-01-27T17:04:19.614Z,6.10
2019-01-27T17:06:48.274Z,6.10
2019-01-27T17:09:16.296Z,6.10
2019-01-27T17:11:45.034Z,6.00
2019-01-27T17:14:13.306Z,6.10
2019-01-27T17:16:43.577Z,6.10
2019-01-27T17:19:11.794Z,6.00
2019-01-27T17:21:40.090Z,6.00
2019-01-27T17:24:08.566Z,6.10
2019-01-27T17:26:36.848Z,6.00
2019-01-27T17:29:07.994Z,6.10
2019-01-27T17:31:35.106Z,6.00
2019-01-27T17:34:03.834Z,6.10
2019-01-27T17:36:32.259Z,6.00
2019-01-27T17:39:01.300Z,6.10
2019-01-27T17:41:30.711Z,6.10
2019-01-27T17:43:59.488Z,6.10
2019-01-27T17:46:28.533Z,6.10
2019-01-27T17:48:56.777Z,6.00
2019-01-27T17:51:23.945Z,6.00
2019-01-27T17:54:01.276Z,6.00
2019-01-27T17:56:28.966Z,5.90
2019-01-27T17:59:14.957Z,5.80
2019-01-27T18:02:11.058Z,5.90
2019-01-27T18:04:45.303Z,6.20
2019-01-27T18:07:19.798Z,5.90
2019-01-27T18:10:07.970Z,5.90
2019-01-27T18:12:43.438Z,5.90
2019-01-27T18:15:16.631Z,5.80
2019-01-27T18:17:45.456Z,5.80
2019-01-27T18:20:14.493Z,5.60
2019-01-27T18:22:42.861Z,5.70
2019-01-27T18:25:12.394Z,5.80
2019-01-27T18:27:44.482Z,5.70
2019-01-27T18:30:18.770Z,5.70
2019-01-27T18:32:47.134Z,5.70
2019-01-27T18:35:15.122Z,5.70
2019-01-27T18:37:49.838Z,5.70
2019-01-27T18:40:15.440Z,5.80
2019-01-27T18:42:43.925Z,5.60
2019-01-27T18:45:14.530Z,6.20
2019-01-27T18:47:43.114Z,5.60
2019-01-27T18:50:17.218Z,5.60
2019-01-27T18:52:45.441Z,5.50
2019-01-27T18:55:37.338Z,5.60
2019-01-27T18:58:34.630Z,5.50
2019-01-27T19:01:10.089Z,5.40
2019-01-27T19:04:02.505Z,5.40
2019-01-27T19:06:51.022Z,5.40
2019-01-27T19:09:47.258Z,5.40
2019-01-27T19:12:49.047Z,5.30
2019-01-27T19:15:54.182Z,5.40
2019-01-27T19:18:50.671Z,5.30
2019-01-27T19:21:39.446Z,5.20
2019-01-27T19:24:24.093Z,5.20
2019-01-27T19:27:11.395Z,5.30
2019-01-27T19:29:55.397Z,5.20
2019-01-27T19:32:42.942Z,5.30
2019-01-27T19:35:52.109Z,5.40
2019-01-27T19:38:30.210Z,5.40
2019-01-27T19:41:09.625Z,5.40
2019-01-27T19:43:51.114Z,5.30
2019-01-27T19:46:35.594Z,5.30
2019-01-27T19:49:23.202Z,5.30
2019-01-27T19:51:59.903Z,5.30
2019-01-27T19:54:46.805Z,5.30
2019-01-27T19:57:27.893Z,5.30
2019-01-27T20:00:22.570Z,5.40
2019-01-27T20:03:14.158Z,5.30
2019-01-27T20:05:56.045Z,5.40
2019-01-27T20:08:42.633Z,5.30
2019-01-27T20:11:35.554Z,5.30
2019-01-27T20:14:13.914Z,5.40
2019-01-27T20:16:53.301Z,5.30
2019-01-27T20:19:40.423Z,5.20
2019-01-27T20:22:14.858Z,5.30
2019-01-27T20:25:07.890Z,5.30
2019-01-27T20:27:44.965Z,5.20
2019-01-27T20:30:23.909Z,5.20
2019-01-27T20:33:16.762Z,5.20
2019-01-27T20:36:02.517Z,5.20
2019-01-27T20:38:51.405Z,5.10
2019-01-27T20:41:32.514Z,5.00
2019-01-27T20:44:28.653Z,5.10
2019-01-27T20:47:28.217Z,5.10
2019-01-27T20:50:32.748Z,5.00
2019-01-27T20:53:37.742Z,5.00
2019-01-27T20:56:21.674Z,4.90
2019-01-27T20:58:58.839Z,4.90
2019-01-27T21:01:39.839Z,5.00
2019-01-27T21:04:26.105Z,4.90
2019-01-27T21:07:15.566Z,4.80
2019-01-27T21:10:02.096Z,4.80
2019-01-27T21:12:52.463Z,4.90
2019-01-27T21:15:38.573Z,4.90
2019-01-27T21:18:15.658Z,4.90
2019-01-27T21:20:43.923Z,4.80
2019-01-27T21:23:11.825Z,4.90
2019-01-27T21:25:39.719Z,4.80
2019-01-27T21:28:06.873Z,4.70
2019-01-27T21:30:37.201Z,4.70
2019-01-27T21:33:04.295Z,4.70
2019-01-27T21:35:31.309Z,4.70
2019-01-27T21:37:58.394Z,4.70
2019-01-27T21:40:25.383Z,4.70
2019-01-27T21:42:52.283Z,4.60
2019-01-27T21:45:24.102Z,4.70
2019-01-27T21:47:51.303Z,4.70
2019-01-27T21:50:18.483Z,4.60
2019-01-27T21:52:45.587Z,4.70
2019-01-27T21:55:12.735Z,4.70
2019-01-27T21:57:39.686Z,4.70
2019-01-27T22:00:13.746Z,4.70
2019-01-27T22:02:40.895Z,4.80
2019-01-27T22:05:08.007Z,4.70
2019-01-27T22:07:34.916Z,4.80
2019-01-27T22:10:01.826Z,4.80
2019-01-27T22:12:28.830Z,4.80
2019-01-27T22:15:00.026Z,4.80
2019-01-27T22:17:27.090Z,4.70
2019-01-27T22:19:54.002Z,4.60
2019-01-27T22:22:20.934Z,4.70
2019-01-27T22:24:47.844Z,4.60
2019-01-27T22:27:14.854Z,4.60
2019-01-27T22:29:41.968Z,4.70
2019-01-27T22:32:10.162Z,4.70
2019-01-27T22:34:37.081Z,4.70
2019-01-27T22:37:03.987Z,4.80
2019-01-27T22:39:30.902Z,4.70
2019-01-27T22:41:57.887Z,4.70
2019-01-27T22:44:24.784Z,4.70
2019-01-27T22:46:56.043Z,4.80
2019-01-27T22:49:22.979Z,4.80
2019-01-27T22:51:50.149Z,4.80
2019-01-27T22:54:17.043Z,4.80
2019-01-27T22:56:44.057Z,4.80
2019-01-27T22:59:10.971Z,4.80
2019-01-27T23:01:43.183Z,4.70
2019-01-27T23:04:10.306Z,4.70
2019-01-27T23:06:37.218Z,4.40
2019-01-27T23:09:08.358Z,4.70
2019-01-27T23:11:35.566Z,4.60
2019-01-27T23:14:05.188Z,4.60
2019-01-27T23:16:32.452Z,4.50
2019-01-27T23:18:59.407Z,4.50
2019-01-27T23:21:26.350Z,4.60
2019-01-27T23:23:53.481Z,4.60
2019-01-27T23:26:21.350Z,4.70
2019-01-27T23:28:51.474Z,4.70
2019-01-27T23:31:20.041Z,4.70
2019-01-27T23:33:48.183Z,4.70
2019-01-27T23:36:16.810Z,4.70
2019-01-27T23:38:44.061Z,4.60
2019-01-27T23:41:14.287Z,4.60
2019-01-27T23:43:42.936Z,4.70
2019-01-27T23:46:11.353Z,4.70
2019-01-27T23:48:39.164Z,4.70
2019-01-27T23:51:07.597Z,4.70
2019-01-27T23:53:38.842Z,4.70
2019-01-27T23:56:05.843Z,4.60
2019-01-27T23:58:33.839Z,4.60
